Time;durP1;ratioP1;P1;durP2;ratioP2;P2;SDS_P1;SDS_P2;PMS_P1;PMS_P2;Temp;Humidity;BMP_temperature;BMP_pressure;BME280_temperature;BME280_humidity;BME280_pressure;Samples;Min_cycle;Max_cycle;Signal;HPM_P1;HPM_P2
2023/08/23 00:01:53;;;;;;;12.15;6.45;;;30.40;73.20;;;;;;5013486;28;20029;-74
2023/08/23 00:04:19;;;;;;;7.43;6.25;;;30.40;73.50;;;;;;5013544;28;20486;-79
2023/08/23 00:06:45;;;;;;;7.35;6.50;;;30.50;73.80;;;;;;4995794;28;20036;-80
2023/08/23 00:09:11;;;;;;;8.63;6.47;;;30.40;73.80;;;;;;5013697;28;20026;-80
2023/08/23 00:11:37;;;;;;;10.45;6.90;;;30.40;74.00;;;;;;5013798;28;20033;-79
2023/08/23 00:14:03;;;;;;;12.48;6.55;;;30.40;73.80;;;;;;5013973;28;20032;-79
2023/08/23 00:16:29;;;;;;;7.22;6.47;;;30.40;73.80;;;;;;4995338;28;20085;-79
2023/08/23 00:18:55;;;;;;;8.60;6.18;;;30.40;74.00;;;;;;4994063;28;20068;-79
2023/08/23 00:21:21;;;;;;;7.35;6.60;;;30.30;74.00;;;;;;4994105;28;20046;-79
2023/08/23 00:23:46;;;;;;;9.95;6.57;;;30.30;74.00;;;;;;4993982;28;20025;-80
2023/08/23 00:26:12;;;;;;;7.05;6.35;;;30.30;74.10;;;;;;4994048;28;20065;-79
2023/08/23 00:28:43;;;;;;;7.70;6.82;;;30.30;74.20;;;;;;4994111;28;20038;-79
2023/08/23 00:31:08;;;;;;;7.20;6.13;;;30.30;74.30;;;;;;5005493;28;20109;-79
2023/08/23 00:33:34;;;;;;;7.68;6.40;;;30.20;74.20;;;;;;5001923;28;20109;-79
2023/08/23 00:36:00;;;;;;;11.48;7.10;;;30.20;74.30;;;;;;4994125;28;20101;-80
2023/08/23 00:38:25;;;;;;;6.97;6.28;;;30.10;74.30;;;;;;4993673;28;20045;-79
2023/08/23 00:40:51;;;;;;;8.98;7.00;;;30.10;74.40;;;;;;4993787;28;20022;-79
2023/08/23 00:43:17;;;;;;;8.55;6.72;;;30.10;74.40;;;;;;4994653;28;20033;-79
2023/08/23 00:45:42;;;;;;;10.50;6.43;;;30.10;74.50;;;;;;5004923;28;20144;-79
2023/08/23 00:48:11;;;;;;;7.60;6.65;;;30.00;74.40;;;;;;4993709;28;20035;-80
2023/08/23 00:50:37;;;;;;;8.25;6.32;;;30.00;74.50;;;;;;4976131;28;20455;-79
2023/08/23 00:53:05;;;;;;;7.95;6.57;;;30.00;74.50;;;;;;4997885;28;20022;-79
2023/08/23 00:55:31;;;;;;;7.63;6.82;;;30.00;74.60;;;;;;5012933;28;20386;-79
2023/08/23 00:57:57;;;;;;;9.05;6.57;;;30.00;74.80;;;;;;5012626;28;20497;-79
2023/08/23 01:00:24;;;;;;;8.75;7.05;;;30.00;74.70;;;;;;5013045;28;20038;-79
2023/08/23 01:02:50;;;;;;;8.45;6.50;;;30.00;74.80;;;;;;5000504;28;20026;-79
2023/08/23 01:05:16;;;;;;;9.05;6.35;;;30.00;74.90;;;;;;4987900;28;20092;-79
2023/08/23 01:08:24;;;;;;;11.65;6.20;;;30.00;74.80;;;;;;5017167;28;20097;-80
2023/08/23 01:11:10;;;;;;;7.20;6.47;;;29.90;74.80;;;;;;4965488;28;20534;-79
2023/08/23 01:14:00;;;;;;;8.40;6.82;;;29.90;74.90;;;;;;5016993;28;20109;-79
2023/08/23 01:16:26;;;;;;;6.68;6.05;;;29.90;75.00;;;;;;5016725;28;20383;-79
2023/08/23 01:18:54;;;;;;;7.50;6.78;;;29.90;75.10;;;;;;5016598;28;20056;-79
2023/08/23 01:21:37;;;;;;;7.30;6.60;;;29.90;75.10;;;;;;5016544;28;20064;-80
2023/08/23 01:24:08;;;;;;;7.18;6.47;;;29.90;75.40;;;;;;5014170;28;20165;-73
2023/08/23 01:26:36;;;;;;;7.15;6.45;;;29.90;75.50;;;;;;4996888;28;20491;-79
2023/08/23 01:29:02;;;;;;;7.85;7.18;;;29.90;75.40;;;;;;5002803;28;20072;-79
2023/08/23 01:31:32;;;;;;;7.05;6.35;;;29.90;75.30;;;;;;4998755;28;20044;-79
2023/08/23 01:34:14;;;;;;;7.68;6.80;;;29.90;75.20;;;;;;5016723;28;20033;-79
2023/08/23 01:36:42;;;;;;;8.25;7.35;;;29.90;75.20;;;;;;5016662;28;20072;-78
2023/08/23 01:39:10;;;;;;;8.27;6.72;;;29.90;75.10;;;;;;5016318;28;20029;-79
2023/08/23 01:41:37;;;;;;;7.82;6.93;;;29.90;74.80;;;;;;4989781;28;20407;-79
2023/08/23 01:44:03;;;;;;;11.27;7.13;;;29.90;74.60;;;;;;4997174;28;20222;-79
2023/08/23 01:46:30;;;;;;;9.32;7.45;;;29.80;74.50;;;;;;4996773;28;20034;-79
2023/08/23 01:48:55;;;;;;;11.18;7.15;;;29.80;74.60;;;;;;4996733;28;20054;-79
2023/08/23 01:51:21;;;;;;;7.78;6.70;;;29.80;74.70;;;;;;4996484;28;20473;-79
2023/08/23 01:53:47;;;;;;;7.72;6.43;;;29.90;74.70;;;;;;5002027;28;20025;-80
2023/08/23 01:56:13;;;;;;;8.43;6.57;;;29.90;74.60;;;;;;5015618;28;20038;-79
2023/08/23 01:58:38;;;;;;;7.72;6.97;;;29.90;74.70;;;;;;5015840;28;20121;-79
2023/08/23 02:01:04;;;;;;;7.30;6.60;;;29.80;74.50;;;;;;5016179;28;20108;-79
2023/08/23 02:03:30;;;;;;;8.98;6.88;;;29.80;74.10;;;;;;5015856;28;20037;-79
2023/08/23 02:05:56;;;;;;;7.30;6.55;;;29.80;74.00;;;;;;5014975;28;20080;-79
2023/08/23 02:08:22;;;;;;;8.00;5.85;;;29.80;74.00;;;;;;5015852;28;20022;-79
2023/08/23 02:10:47;;;;;;;6.82;5.93;;;29.80;73.00;;;;;;5015857;28;20030;-79
2023/08/23 02:13:13;;;;;;;5.85;5.25;;;29.70;72.20;;;;;;5004772;28;20026;-79
2023/08/23 02:15:38;;;;;;;6.45;5.65;;;29.60;72.50;;;;;;4976841;28;20527;-80
2023/08/23 02:18:04;;;;;;;6.05;5.45;;;29.50;72.50;;;;;;4982113;28;20038;-79
2023/08/23 02:20:30;;;;;;;10.02;6.15;;;29.50;72.60;;;;;;5011263;28;20089;-78
2023/08/23 02:22:56;;;;;;;6.38;5.30;;;29.50;72.70;;;;;;4995939;28;20034;-79
2023/08/23 02:25:21;;;;;;;6.18;5.57;;;29.50;72.20;;;;;;5007016;28;20034;-79
2023/08/23 02:27:47;;;;;;;6.90;5.13;;;29.50;71.70;;;;;;5015167;28;20030;-79
2023/08/23 02:30:13;;;;;;;9.25;4.70;;;29.40;71.60;;;;;;5015431;28;20394;-80
2023/08/23 02:32:39;;;;;;;7.18;5.70;;;29.30;71.90;;;;;;4997852;28;20034;-79
2023/08/23 02:35:05;;;;;;;6.60;5.68;;;29.30;72.20;;;;;;5015633;28;20116;-79
2023/08/23 02:37:30;;;;;;;6.97;5.85;;;29.30;72.40;;;;;;4995620;28;20034;-79
2023/08/23 02:39:56;;;;;;;8.90;5.82;;;29.30;72.30;;;;;;4995862;28;20510;-79
2023/08/23 02:42:22;;;;;;;6.10;5.45;;;29.30;72.20;;;;;;4997313;28;20026;-79
2023/08/23 02:44:47;;;;;;;6.10;5.38;;;29.30;72.10;;;;;;5015099;28;20022;-79
2023/08/23 02:47:13;;;;;;;6.95;5.60;;;29.40;72.10;;;;;;4997652;28;20493;-79
2023/08/23 02:49:38;;;;;;;6.57;5.57;;;29.40;72.10;;;;;;4997728;28;20038;-79
2023/08/23 02:52:04;;;;;;;5.90;4.97;;;29.40;72.10;;;;;;4995690;28;20030;-79
2023/08/23 02:54:30;;;;;;;6.20;5.20;;;29.40;72.10;;;;;;5003085;28;20027;-79
2023/08/23 02:56:56;;;;;;;6.65;5.47;;;29.40;72.10;;;;;;5009954;28;20072;-79
2023/08/23 02:59:23;;;;;;;5.95;5.13;;;29.40;72.10;;;;;;5014408;28;20049;-80
2023/08/23 03:01:48;;;;;;;8.63;5.97;;;29.40;72.10;;;;;;5014153;28;20566;-73
2023/08/23 03:04:14;;;;;;;6.50;5.72;;;29.30;72.10;;;;;;4953753;23;20130;-80
2023/08/23 03:06:40;;;;;;;5.55;4.95;;;29.30;72.10;;;;;;4975014;28;20061;-80
2023/08/23 03:09:05;;;;;;;8.35;5.40;;;29.30;72.70;;;;;;4975097;28;20403;-80
2023/08/23 03:11:31;;;;;;;5.32;4.82;;;29.20;72.10;;;;;;4974934;28;20434;-77
2023/08/23 03:13:57;;;;;;;8.38;4.82;;;29.20;72.20;;;;;;4974814;28;20035;-72
2023/08/23 03:16:23;;;;;;;8.98;5.40;;;29.20;72.40;;;;;;4974963;28;20023;-72
2023/08/23 03:18:48;;;;;;;8.35;4.80;;;29.20;72.80;;;;;;4974905;28;20023;-72
2023/08/23 03:21:15;;;;;;;8.73;5.32;;;29.20;72.00;;;;;;4975014;28;20047;-72
2023/08/23 03:23:41;;;;;;;5.10;4.60;;;29.20;71.90;;;;;;4973716;28;20486;-72
2023/08/23 03:26:07;;;;;;;6.95;4.70;;;29.20;71.70;;;;;;4974699;28;20045;-72
2023/08/23 03:28:32;;;;;;;7.40;5.15;;;29.20;71.70;;;;;;4974565;28;20508;-72
2023/08/23 03:31:05;;;;;;;11.13;4.72;;;29.20;71.50;;;;;;4974721;28;20398;-72
2023/08/23 03:33:30;;;;;;;7.07;5.40;;;29.30;71.30;;;;;;4957672;28;20394;-72
2023/08/23 03:35:56;;;;;;;5.43;4.85;;;29.30;71.20;;;;;;4975880;28;20105;-72
2023/08/23 03:38:22;;;;;;;4.72;4.22;;;29.20;71.10;;;;;;4975635;28;20082;-72
2023/08/23 03:40:49;;;;;;;10.27;4.65;;;29.20;71.00;;;;;;4975217;28;20034;-72
2023/08/23 03:43:14;;;;;;;6.88;4.57;;;29.20;71.10;;;;;;4975256;28;20026;-72
2023/08/23 03:45:47;;;;;;;11.30;5.50;;;29.20;71.00;;;;;;4975175;28;20046;-72
2023/08/23 03:48:14;;;;;;;5.43;4.93;;;29.10;70.80;;;;;;4975133;28;20034;-73
2023/08/23 03:50:39;;;;;;;6.72;4.50;;;28.90;71.00;;;;;;4974788;28;20502;-73
2023/08/23 03:53:05;;;;;;;6.85;5.35;;;28.90;71.30;;;;;;4974806;28;20070;-73
2023/08/23 03:55:30;;;;;;;9.60;5.68;;;28.80;71.40;;;;;;4978183;28;20032;-72
2023/08/23 03:57:56;;;;;;;7.15;5.18;;;28.80;71.60;;;;;;4993807;28;20058;-72
2023/08/23 04:00:22;;;;;;;6.35;4.25;;;28.70;71.60;;;;;;4994178;28;20061;-72
2023/08/23 04:02:48;;;;;;;7.00;4.97;;;28.60;71.80;;;;;;4993996;28;20471;-73
2023/08/23 04:05:13;;;;;;;7.30;4.30;;;28.50;71.80;;;;;;4993145;28;20050;-73
2023/08/23 04:07:40;;;;;;;6.18;4.63;;;28.50;71.90;;;;;;4994108;28;20487;-73
2023/08/23 04:10:07;;;;;;;8.57;4.70;;;28.50;71.80;;;;;;4994110;28;20029;-72
2023/08/23 04:12:33;;;;;;;9.05;5.00;;;28.50;72.00;;;;;;4994424;28;20398;-72
2023/08/23 04:14:58;;;;;;;7.38;4.93;;;28.50;72.00;;;;;;4993259;28;20038;-73
2023/08/23 04:17:24;;;;;;;6.05;4.45;;;28.50;71.50;;;;;;4993677;28;20097;-73
2023/08/23 04:19:50;;;;;;;7.03;5.15;;;28.60;71.40;;;;;;4976459;28;20030;-72
2023/08/23 04:22:15;;;;;;;5.82;4.85;;;28.60;71.40;;;;;;4994156;28;20102;-73
2023/08/23 04:24:41;;;;;;;5.13;4.60;;;28.60;71.10;;;;;;4994090;28;20340;-73
2023/08/23 04:27:07;;;;;;;10.45;4.30;;;28.70;71.00;;;;;;4977621;28;20045;-78
2023/08/23 04:29:33;;;;;;;5.18;4.40;;;28.70;70.70;;;;;;4974709;28;20114;-79
2023/08/23 04:31:59;;;;;;;6.07;4.53;;;28.70;70.50;;;;;;4990299;28;20551;-79
2023/08/23 04:34:26;;;;;;;5.82;4.03;;;28.80;70.40;;;;;;4976403;28;20125;-79
2023/08/23 04:36:51;;;;;;;5.93;4.40;;;28.80;70.10;;;;;;4997371;28;20117;-78
2023/08/23 04:39:17;;;;;;;4.55;3.65;;;28.80;70.00;;;;;;4998151;28;20101;-78
2023/08/23 04:41:43;;;;;;;4.50;4.03;;;28.70;70.00;;;;;;4998168;28;20531;-78
2023/08/23 04:44:08;;;;;;;4.95;4.10;;;28.60;70.10;;;;;;4997869;28;20046;-78
2023/08/23 04:46:34;;;;;;;9.32;4.63;;;28.60;70.30;;;;;;4997524;28;20122;-79
2023/08/23 04:49:00;;;;;;;5.10;4.00;;;28.60;70.40;;;;;;4997730;28;20034;-79
2023/08/23 04:51:26;;;;;;;5.60;4.68;;;28.60;70.30;;;;;;4997667;28;20455;-78
2023/08/23 04:53:52;;;;;;;6.50;3.92;;;28.60;70.30;;;;;;4997015;28;20033;-79
2023/08/23 04:56:17;;;;;;;5.65;4.28;;;28.60;70.40;;;;;;4988678;28;20394;-72
2023/08/23 04:58:43;;;;;;;4.85;4.00;;;28.60;70.30;;;;;;4979095;28;20031;-73
2023/08/23 05:01:09;;;;;;;6.57;4.32;;;28.60;70.50;;;;;;4995977;28;20047;-73
2023/08/23 05:03:35;;;;;;;10.98;4.50;;;28.70;70.60;;;;;;4996977;28;20038;-73
2023/08/23 05:06:02;;;;;;;5.15;4.30;;;28.70;70.60;;;;;;4987790;28;20039;-73
2023/08/23 05:08:28;;;;;;;8.10;4.15;;;28.70;70.60;;;;;;4960395;28;20042;-73
2023/08/23 05:10:55;;;;;;;6.13;4.68;;;28.80;70.80;;;;;;4960360;28;20023;-73
2023/08/23 05:13:22;;;;;;;7.13;4.63;;;28.70;70.70;;;;;;4977776;28;20038;-73
2023/08/23 05:15:56;;;;;;;5.10;4.57;;;28.80;71.00;;;;;;4979096;28;20025;-73
2023/08/23 05:18:22;;;;;;;5.57;4.57;;;28.80;71.00;;;;;;4977940;28;20449;-73
2023/08/23 05:20:59;;;;;;;6.07;4.38;;;28.80;70.90;;;;;;4980611;28;20109;-73
2023/08/23 05:23:25;;;;;;;5.05;4.07;;;28.90;70.80;;;;;;4977560;28;20025;-73
2023/08/23 05:25:52;;;;;;;7.20;4.57;;;28.80;70.10;;;;;;4977500;28;20023;-73
2023/08/23 05:28:19;;;;;;;4.25;3.60;;;28.80;69.50;;;;;;4977514;28;20058;-73
2023/08/23 05:30:45;;;;;;;8.38;4.13;;;28.80;69.70;;;;;;4989618;28;20069;-73
2023/08/23 05:33:12;;;;;;;6.35;3.88;;;28.80;69.90;;;;;;4993923;28;20375;-73
2023/08/23 05:35:40;;;;;;;4.25;3.83;;;28.80;69.60;;;;;;4996616;28;20018;-73
2023/08/23 05:38:05;;;;;;;4.90;3.33;;;28.80;69.30;;;;;;4997061;28;20031;-73
2023/08/23 05:40:32;;;;;;;5.05;3.90;;;28.80;69.70;;;;;;4996867;28;20073;-73
2023/08/23 05:42:57;;;;;;;4.82;3.72;;;28.80;68.70;;;;;;4996112;28;20018;-73
2023/08/23 05:45:26;;;;;;;6.07;3.80;;;28.70;68.80;;;;;;4996463;28;20073;-73
2023/08/23 05:47:54;;;;;;;4.15;3.70;;;28.70;68.90;;;;;;4995425;28;20026;-73
2023/08/23 05:50:20;;;;;;;4.60;3.67;;;28.80;69.30;;;;;;4996421;28;20034;-73
2023/08/23 05:52:46;;;;;;;5.78;3.97;;;28.80;69.20;;;;;;4994247;28;20029;-78
2023/08/23 05:55:11;;;;;;;4.38;3.92;;;28.80;68.80;;;;;;4992597;28;20034;-78
2023/08/23 05:57:37;;;;;;;4.38;3.97;;;28.80;69.00;;;;;;4997356;28;20037;-79
2023/08/23 06:00:05;;;;;;;6.13;3.80;;;28.80;68.70;;;;;;4994373;28;20042;-78
2023/08/23 06:02:31;;;;;;;4.55;3.65;;;28.80;68.60;;;;;;4990176;28;20019;-78
2023/08/23 06:04:57;;;;;;;4.38;3.97;;;28.80;68.80;;;;;;4979637;28;20055;-79
2023/08/23 06:07:23;;;;;;;6.65;3.80;;;28.80;68.80;;;;;;4978284;28;20041;-79
2023/08/23 06:09:48;;;;;;;3.72;3.30;;;28.80;68.60;;;;;;4979599;28;20066;-80
2023/08/23 06:12:14;;;;;;;5.75;4.20;;;28.80;68.80;;;;;;4982673;28;20031;-79
2023/08/23 06:14:40;;;;;;;4.53;3.67;;;28.90;68.90;;;;;;4996002;28;20092;-79
2023/08/23 06:17:06;;;;;;;5.38;3.85;;;29.00;69.50;;;;;;4991889;28;20031;-79
2023/08/23 06:19:32;;;;;;;6.88;4.00;;;29.10;70.00;;;;;;4980548;28;20042;-79
2023/08/23 06:21:58;;;;;;;6.03;3.83;;;29.10;67.80;;;;;;4981165;28;20115;-80
2023/08/23 06:24:25;;;;;;;4.65;3.83;;;29.10;68.70;;;;;;4980625;28;20066;-79
2023/08/23 06:26:51;;;;;;;5.10;3.63;;;29.10;68.30;;;;;;4977702;28;20049;-79
2023/08/23 06:29:19;;;;;;;6.97;4.15;;;29.20;68.70;;;;;;4980499;28;20058;-79
2023/08/23 06:31:45;;;;;;;4.07;3.63;;;29.30;68.50;;;;;;4982320;28;20030;-79
2023/08/23 06:34:11;;;;;;;6.63;3.58;;;29.30;68.20;;;;;;4983153;28;20053;-79
2023/08/23 06:36:36;;;;;;;6.45;3.78;;;29.40;68.40;;;;;;4998520;28;20086;-80
2023/08/23 06:39:02;;;;;;;5.28;3.40;;;29.40;68.00;;;;;;4983986;28;20035;-79
2023/08/23 06:41:28;;;;;;;6.35;3.97;;;29.40;67.90;;;;;;4960291;29;20035;-78
2023/08/23 06:44:01;;;;;;;5.10;3.50;;;29.40;67.10;;;;;;4959439;28;20076;-78
2023/08/23 06:46:28;;;;;;;4.75;3.30;;;29.50;67.20;;;;;;4958233;28;20033;-80
2023/08/23 06:48:57;;;;;;;5.90;3.92;;;29.50;67.40;;;;;;4982562;28;20162;-79
2023/08/23 06:51:27;;;;;;;6.72;3.85;;;29.50;67.40;;;;;;4977449;28;20107;-80
2023/08/23 06:53:52;;;;;;;5.68;3.10;;;29.60;67.30;;;;;;4975574;28;20037;-81
2023/08/23 06:56:18;;;;;;;5.78;3.60;;;29.70;67.30;;;;;;4998471;28;20031;-82
2023/08/23 06:58:44;;;;;;;4.47;3.83;;;29.70;66.90;;;;;;4990472;28;20026;-81
2023/08/23 07:01:14;;;;;;;4.05;3.55;;;29.80;66.50;;;;;;4982176;28;20026;-81
2023/08/23 07:03:44;;;;;;;6.32;4.00;;;29.90;66.30;;;;;;4981228;28;20378;-81
2023/08/23 07:06:14;;;;;;;4.32;3.05;;;29.90;66.00;;;;;;4997633;28;20105;-81
2023/08/23 07:08:41;;;;;;;3.65;3.30;;;30.00;66.00;;;;;;4993837;28;20049;-81
2023/08/23 07:11:07;;;;;;;6.45;3.63;;;30.10;66.00;;;;;;4965252;28;20039;-80
2023/08/23 07:13:34;;;;;;;4.95;3.55;;;30.10;65.80;;;;;;4995211;28;20041;-80
2023/08/23 07:16:00;;;;;;;6.75;3.33;;;30.20;65.60;;;;;;4994430;28;20049;-80
2023/08/23 07:18:26;;;;;;;4.57;3.60;;;30.20;65.50;;;;;;4975631;28;20483;-80
2023/08/23 07:20:51;;;;;;;4.43;3.25;;;30.30;65.50;;;;;;4956431;28;20034;-79
2023/08/23 07:23:17;;;;;;;5.85;3.60;;;30.40;65.40;;;;;;4956668;28;20449;-74
2023/08/23 07:25:44;;;;;;;4.90;3.58;;;30.50;65.40;;;;;;4956015;28;20042;-73
2023/08/23 07:28:09;;;;;;;6.18;3.70;;;30.50;65.00;;;;;;4965435;28;20031;-74
2023/08/23 07:30:35;;;;;;;10.07;3.80;;;30.60;65.10;;;;;;4975290;28;20043;-73
2023/08/23 07:33:01;;;;;;;5.13;3.75;;;30.70;64.90;;;;;;4975131;28;20498;-74
2023/08/23 07:35:26;;;;;;;3.80;3.28;;;30.80;65.60;;;;;;4973719;28;20372;-80
2023/08/23 07:37:52;;;;;;;5.50;3.67;;;30.80;65.30;;;;;;4975338;28;20101;-78
2023/08/23 07:40:18;;;;;;;7.70;4.65;;;30.90;65.30;;;;;;4975341;28;20034;-79
2023/08/23 07:42:44;;;;;;;6.70;4.78;;;31.00;64.60;;;;;;4975435;28;20502;-79
2023/08/23 07:45:10;;;;;;;6.05;4.38;;;31.00;64.70;;;;;;4979110;28;20536;-79
2023/08/23 07:47:35;;;;;;;14.52;11.75;;;31.00;64.40;;;;;;4975186;28;20373;-79
2023/08/23 07:50:02;;;;;;;21.70;14.57;;;31.00;64.80;;;;;;4988029;28;20077;-79
2023/08/23 07:52:28;;;;;;;24.92;14.18;;;31.10;65.40;;;;;;4989944;28;20065;-79
2023/08/23 07:54:54;;;;;;;25.15;18.25;;;31.10;65.80;;;;;;4989078;28;20404;-80
2023/08/23 07:57:19;;;;;;;44.75;30.75;;;31.20;65.60;;;;;;4974839;28;20035;-80
2023/08/23 07:59:45;;;;;;;21.48;15.93;;;31.20;65.70;;;;;;4979154;28;20044;-80
2023/08/23 08:02:11;;;;;;;20.13;14.82;;;31.30;65.30;;;;;;4973666;28;20146;-80
2023/08/23 08:04:37;;;;;;;40.78;28.30;;;31.30;65.20;;;;;;4977467;28;20067;-80
2023/08/23 08:07:03;;;;;;;43.22;29.70;;;31.30;65.30;;;;;;4983527;28;20447;-79
2023/08/23 08:09:29;;;;;;;14.85;10.35;;;31.40;65.50;;;;;;4976746;28;20065;-79
2023/08/23 08:11:55;;;;;;;11.77;8.07;;;31.50;65.90;;;;;;4958904;28;20591;-82
2023/08/23 08:14:21;;;;;;;13.63;9.82;;;31.60;66.50;;;;;;4975024;28;20030;-86
2023/08/23 08:16:46;;;;;;;53.15;41.20;;;31.70;66.20;;;;;;4975040;28;20464;-84
2023/08/23 08:19:12;;;;;;;34.28;29.17;;;31.80;65.00;;;;;;4975114;28;20026;-82
2023/08/23 08:21:38;;;;;;;25.15;18.48;;;31.80;64.30;;;;;;4974734;28;20375;-83
2023/08/23 08:24:04;;;;;;;16.00;10.88;;;31.90;64.50;;;;;;4978775;28;20382;-82
2023/08/23 08:26:29;;;;;;;19.70;14.95;;;31.90;64.90;;;;;;4973891;28;20027;-83
2023/08/23 08:28:55;;;;;;;12.35;10.48;;;32.00;64.30;;;;;;4982337;28;20019;-82
2023/08/23 08:31:21;;;;;;;21.25;13.23;;;32.00;63.90;;;;;;4993961;28;20041;-83
2023/08/23 08:33:47;;;;;;;9.75;6.13;;;32.20;64.00;;;;;;4994456;28;20485;-84
2023/08/23 08:36:13;;;;;;;17.80;12.68;;;32.30;63.90;;;;;;4978741;28;20102;-84
2023/08/23 08:38:39;;;;;;;22.17;15.68;;;32.30;62.30;;;;;;4983627;28;20038;-83
2023/08/23 08:41:05;;;;;;;21.92;16.13;;;32.30;61.80;;;;;;4968315;28;20027;-82
2023/08/23 08:43:31;;;;;;;53.78;41.03;;;32.40;62.10;;;;;;4986696;28;20085;-84
2023/08/23 08:45:57;;;;;;;33.42;26.23;;;32.40;62.40;;;;;;4994074;28;20027;-85
2023/08/23 08:48:23;;;;;;;26.42;20.02;;;32.50;63.10;;;;;;4979689;28;20105;-85
2023/08/23 08:50:49;;;;;;;20.48;15.38;;;32.50;62.70;;;;;;4973060;28;20101;-84
2023/08/23 08:53:17;;;;;;;24.63;18.65;;;32.60;62.50;;;;;;4973417;28;20030;-85
2023/08/23 08:55:46;;;;;;;15.57;12.30;;;32.60;62.70;;;;;;4978577;28;20067;-83
2023/08/23 08:58:19;;;;;;;22.20;16.80;;;32.80;62.30;;;;;;4973137;28;20027;-85
2023/08/23 09:00:49;;;;;;;10.02;7.47;;;32.90;62.50;;;;;;4972828;28;20108;-84
2023/08/23 09:03:17;;;;;;;8.65;5.72;;;33.00;63.10;;;;;;4974358;28;20451;-84
2023/08/23 09:05:53;;;;;;;7.05;4.72;;;33.10;62.80;;;;;;4973442;28;20102;-84
2023/08/23 09:08:19;;;;;;;12.77;9.48;;;33.20;62.40;;;;;;4973847;28;20424;-83
2023/08/23 09:10:45;;;;;;;8.75;6.15;;;33.40;62.90;;;;;;4973975;28;20102;-83
2023/08/23 09:13:10;;;;;;;10.25;5.43;;;33.50;62.60;;;;;;4971745;28;20050;-81
2023/08/23 09:15:36;;;;;;;10.00;6.65;;;33.60;62.30;;;;;;4973985;28;20076;-81
2023/08/23 09:18:02;;;;;;;6.45;4.68;;;33.70;62.20;;;;;;4973178;28;20118;-83
2023/08/23 09:20:28;;;;;;;8.25;6.55;;;33.80;62.20;;;;;;4972531;28;20030;-83
2023/08/23 09:22:54;;;;;;;13.27;9.02;;;33.90;61.90;;;;;;4976144;28;20035;-83
2023/08/23 09:25:22;;;;;;;12.57;9.48;;;34.10;61.40;;;;;;4977477;28;20022;-82
2023/08/23 09:27:48;;;;;;;18.23;8.48;;;34.10;60.50;;;;;;4978495;28;20038;-83
2023/08/23 09:30:14;;;;;;;15.93;11.38;;;34.20;59.60;;;;;;4981925;28;20054;-82
2023/08/23 09:32:43;;;;;;;20.60;14.65;;;34.20;60.10;;;;;;4976348;28;20034;-83
2023/08/23 09:35:10;;;;;;;11.82;8.52;;;34.30;59.80;;;;;;4983243;28;20030;-83
2023/08/23 09:37:38;;;;;;;15.52;9.95;;;34.40;59.30;;;;;;4985843;28;20031;-83
2023/08/23 09:40:04;;;;;;;10.65;7.95;;;34.40;59.60;;;;;;4980046;28;20113;-83
2023/08/23 09:42:34;;;;;;;13.13;5.25;;;34.50;59.30;;;;;;4977433;28;20041;-82
2023/08/23 09:45:02;;;;;;;9.85;7.15;;;34.60;59.90;;;;;;4981837;28;20031;-84
2023/08/23 09:47:32;;;;;;;8.80;7.28;;;34.80;60.20;;;;;;4977843;28;20113;-85
2023/08/23 09:49:59;;;;;;;11.07;8.80;;;34.90;60.60;;;;;;4976533;28;20491;-85
2023/08/23 09:52:30;;;;;;;21.13;13.38;;;35.00;60.70;;;;;;4976991;28;20035;-85
2023/08/23 09:55:11;;;;;;;11.98;7.80;;;35.20;60.80;;;;;;4972115;28;20035;-85
2023/08/23 09:57:37;;;;;;;11.43;5.53;;;35.30;60.50;;;;;;4969826;28;20061;-84
2023/08/23 10:00:03;;;;;;;6.00;5.00;;;35.40;60.70;;;;;;4996518;28;20022;-83
2023/08/23 10:02:29;;;;;;;7.63;4.63;;;35.50;60.10;;;;;;4991847;28;20101;-81
2023/08/23 10:04:56;;;;;;;6.30;5.00;;;35.70;60.30;;;;;;4983048;28;20065;-81
2023/08/23 10:07:23;;;;;;;6.25;4.90;;;35.80;59.70;;;;;;4970352;28;20038;-81
2023/08/23 10:09:50;;;;;;;7.45;4.85;;;35.90;59.50;;;;;;4973949;28;20065;-81
2023/08/23 10:12:17;;;;;;;8.77;4.72;;;36.00;59.40;;;;;;4976868;28;20039;-80
2023/08/23 10:14:46;;;;;;;9.48;4.45;;;36.20;59.40;;;;;;4975605;28;20031;-81
2023/08/23 10:17:15;;;;;;;15.13;4.95;;;36.30;59.00;;;;;;4976778;28;20117;-82
2023/08/23 10:19:41;;;;;;;6.22;4.57;;;36.40;59.10;;;;;;4976727;28;20487;-82
2023/08/23 10:22:07;;;;;;;8.32;4.15;;;36.50;59.20;;;;;;4974902;28;20031;-81
2023/08/23 10:24:34;;;;;;;7.22;4.70;;;36.60;59.00;;;;;;4977206;28;20053;-82
2023/08/23 10:27:07;;;;;;;6.70;4.10;;;36.70;58.90;;;;;;4970967;28;20586;-82
2023/08/23 10:29:34;;;;;;;8.05;4.70;;;36.80;58.50;;;;;;4971875;28;20041;-79
2023/08/23 10:32:05;;;;;;;6.13;4.18;;;36.80;58.00;;;;;;4957692;28;20053;-79
2023/08/23 10:34:35;;;;;;;8.48;4.65;;;37.00;58.40;;;;;;4986641;28;20038;-79
2023/08/23 10:37:01;;;;;;;6.18;4.95;;;37.00;58.40;;;;;;4993260;28;20478;-79
2023/08/23 10:39:27;;;;;;;6.57;4.32;;;37.10;58.20;;;;;;4992821;28;20142;-79
2023/08/23 10:41:56;;;;;;;7.05;4.38;;;37.20;57.20;;;;;;4992971;28;20106;-80
2023/08/23 10:44:22;;;;;;;8.75;4.30;;;37.30;57.60;;;;;;4986779;28;20042;-79
2023/08/23 10:46:51;;;;;;;15.57;5.22;;;37.50;57.50;;;;;;4979736;28;20027;-79
2023/08/23 10:49:20;;;;;;;7.57;5.30;;;37.60;56.90;;;;;;4973138;28;20038;-78
2023/08/23 10:51:50;;;;;;;7.60;4.10;;;37.70;57.10;;;;;;4972857;28;20034;-80
2023/08/23 10:54:15;;;;;;;11.73;5.32;;;37.80;57.10;;;;;;4973506;28;20031;-80
2023/08/23 10:56:41;;;;;;;8.18;5.15;;;37.90;56.30;;;;;;4973261;28;20470;-80
2023/08/23 10:59:07;;;;;;;8.90;4.53;;;38.00;56.90;;;;;;4973138;28;20466;-80
2023/08/23 11:01:34;;;;;;;7.30;5.78;;;38.00;56.60;;;;;;4973159;28;20529;-79
2023/08/23 11:04:04;;;;;;;6.05;4.70;;;38.20;55.80;;;;;;4977406;28;20089;-79
2023/08/23 11:06:30;;;;;;;6.53;5.20;;;38.20;56.10;;;;;;4972929;28;20123;-80
2023/08/23 11:08:57;;;;;;;8.98;5.50;;;38.40;56.10;;;;;;4973363;28;20030;-79
2023/08/23 11:11:29;;;;;;;7.30;4.93;;;38.40;55.90;;;;;;4972956;28;20018;-79
2023/08/23 11:13:56;;;;;;;6.13;4.65;;;38.70;55.70;;;;;;4969203;28;20085;-79
2023/08/23 11:16:23;;;;;;;8.32;5.22;;;38.80;55.70;;;;;;4968211;28;20062;-80
2023/08/23 11:18:49;;;;;;;9.13;5.38;;;39.00;55.30;;;;;;4972304;28;20073;-79
2023/08/23 11:21:17;;;;;;;8.32;4.97;;;39.10;55.20;;;;;;4955417;28;20129;-79
2023/08/23 11:23:42;;;;;;;6.05;4.80;;;39.20;55.20;;;;;;4972868;28;20042;-80
2023/08/23 11:26:08;;;;;;;7.18;5.22;;;39.40;55.30;;;;;;4955193;28;20030;-80
2023/08/23 11:28:34;;;;;;;9.57;5.50;;;39.50;55.40;;;;;;4976380;28;20094;-79
2023/08/23 11:31:06;;;;;;;9.02;5.18;;;39.60;55.20;;;;;;4971156;28;20801;-79
2023/08/23 11:33:32;;;;;;;8.98;5.45;;;39.80;54.70;;;;;;4971809;28;20537;-79
2023/08/23 11:35:58;;;;;;;10.48;5.72;;;39.90;54.40;;;;;;4972608;28;20383;-79
2023/08/23 11:38:28;;;;;;;8.52;5.15;;;40.10;54.20;;;;;;4972021;28;20045;-78
2023/08/23 11:40:54;;;;;;;7.32;5.10;;;40.20;53.40;;;;;;4972219;28;20076;-78
2023/08/23 11:43:19;;;;;;;7.20;4.57;;;40.30;53.00;;;;;;4972598;28;20263;-80
2023/08/23 11:45:48;;;;;;;10.32;5.60;;;40.40;53.50;;;;;;4973041;28;20030;-80
2023/08/23 11:48:14;;;;;;;8.40;5.60;;;40.50;53.40;;;;;;4956779;28;20452;-80
2023/08/23 11:50:40;;;;;;;6.30;4.85;;;40.70;52.80;;;;;;4973848;28;20487;-81
2023/08/23 11:53:06;;;;;;;7.93;4.90;;;40.80;52.30;;;;;;4973867;28;20121;-80
2023/08/23 11:55:34;;;;;;;6.95;5.38;;;40.90;52.30;;;;;;4973950;28;20023;-81
2023/08/23 11:58:02;;;;;;;12.27;5.65;;;41.10;52.50;;;;;;4973914;28;20023;-81
2023/08/23 12:00:28;;;;;;;9.85;5.57;;;41.30;51.70;;;;;;4973851;28;20027;-81
2023/08/23 12:02:53;;;;;;;6.82;4.65;;;41.40;52.10;;;;;;4973670;28;20037;-81
2023/08/23 12:05:19;;;;;;;6.32;5.55;;;41.60;51.70;;;;;;4973465;28;20118;-82
2023/08/23 12:07:48;;;;;;;5.72;5.13;;;41.70;51.20;;;;;;4955826;28;20089;-82
2023/08/23 12:10:14;;;;;;;10.98;6.65;;;41.80;51.20;;;;;;4973215;28;20023;-81
2023/08/23 12:12:40;;;;;;;11.65;5.22;;;41.90;50.40;;;;;;4956144;28;20042;-81
2023/08/23 12:15:07;;;;;;;9.23;5.82;;;41.90;50.70;;;;;;4972954;28;20050;-81
2023/08/23 12:17:34;;;;;;;7.75;5.50;;;42.10;50.50;;;;;;4973149;28;20538;-82
2023/08/23 12:19:59;;;;;;;7.63;5.57;;;42.20;50.50;;;;;;4955888;28;20487;-81
2023/08/23 12:22:26;;;;;;;8.10;5.05;;;42.30;50.20;;;;;;4956310;28;20027;-81
2023/08/23 12:24:52;;;;;;;8.40;5.20;;;42.40;50.00;;;;;;4973269;28;20026;-81
2023/08/23 12:27:17;;;;;;;8.88;4.70;;;42.50;50.10;;;;;;4973206;28;20122;-81
2023/08/23 12:29:44;;;;;;;6.40;4.78;;;42.50;49.80;;;;;;4969053;28;20041;-81
2023/08/23 12:32:09;;;;;;;8.02;5.47;;;42.60;49.80;;;;;;4953384;28;20034;-79
2023/08/23 12:34:35;;;;;;;8.00;5.45;;;42.60;49.40;;;;;;4954026;28;20031;-79
2023/08/23 12:37:01;;;;;;;6.80;5.15;;;42.70;49.60;;;;;;4970642;28;20063;-79
2023/08/23 12:39:27;;;;;;;6.30;4.75;;;42.70;49.90;;;;;;4972991;28;20510;-79
2023/08/23 12:41:53;;;;;;;9.07;4.88;;;42.80;50.00;;;;;;4945977;28;20027;-79